sensor_id;sensor_type;location;lat;lon;timestamp;P1;durP1;ratioP1;P2;durP2;ratioP2
68812;SDS011;55808;48.112;11.552;2022-10-19T00:02:02;70.80;;;45.40;;
68812;SDS011;55808;48.112;11.552;2022-10-19T00:04:28;66.20;;;44.60;;
68812;SDS011;55808;48.112;11.552;2022-10-19T00:06:54;67.90;;;44.77;;
68812;SDS011;55808;48.112;11.552;2022-10-19T00:09:19;46.57;;;41.77;;
68812;SDS011;55808;48.112;11.552;2022-10-19T00:11:47;51.07;;;43.80;;
68812;SDS011;55808;48.112;11.552;2022-10-19T00:14:15;45.63;;;41.90;;
68812;SDS011;55808;48.112;11.552;2022-10-19T00:16:44;46.90;;;41.90;;
68812;SDS011;55808;48.112;11.552;2022-10-19T00:19:12;42.63;;;39.57;;
68812;SDS011;55808;48.112;11.552;2022-10-19T00:21:40;46.63;;;42.40;;
68812;SDS011;55808;48.112;11.552;2022-10-19T00:24:06;76.63;;;45.77;;
68812;SDS011;55808;48.112;11.552;2022-10-19T00:26:32;68.90;;;45.83;;
68812;SDS011;55808;48.112;11.552;2022-10-19T00:28:58;78.90;;;46.00;;
68812;SDS011;55808;48.112;11.552;2022-10-19T00:31:24;76.10;;;45.00;;
68812;SDS011;55808;48.112;11.552;2022-10-19T00:33:51;45.00;;;40.87;;
68812;SDS011;55808;48.112;11.552;2022-10-19T00:36:27;48.30;;;41.73;;
68812;SDS011;55808;48.112;11.552;2022-10-19T00:38:55;71.70;;;45.73;;
68812;SDS011;55808;48.112;11.552;2022-10-19T00:41:22;81.63;;;45.77;;
68812;SDS011;55808;48.112;11.552;2022-10-19T00:46:17;43.90;;;40.53;;
68812;SDS011;55808;48.112;11.552;2022-10-19T00:48:43;43.43;;;39.83;;
68812;SDS011;55808;48.112;11.552;2022-10-19T00:51:08;47.20;;;42.50;;
68812;SDS011;55808;48.112;11.552;2022-10-19T00:53:34;70.50;;;44.33;;
68812;SDS011;55808;48.112;11.552;2022-10-19T00:56:02;62.97;;;43.77;;
68812;SDS011;55808;48.112;11.552;2022-10-19T00:58:31;74.70;;;46.77;;
68812;SDS011;55808;48.112;11.552;2022-10-19T01:00:59;69.60;;;44.60;;
68812;SDS011;55808;48.112;11.552;2022-10-19T01:03:28;70.13;;;44.93;;
68812;SDS011;55808;48.112;11.552;2022-10-19T01:05:54;68.63;;;44.53;;
68812;SDS011;55808;48.112;11.552;2022-10-19T01:08:20;49.60;;;42.37;;
68812;SDS011;55808;48.112;11.552;2022-10-19T01:10:58;46.07;;;41.80;;
68812;SDS011;55808;48.112;11.552;2022-10-19T01:13:46;74.87;;;45.53;;
68812;SDS011;55808;48.112;11.552;2022-10-19T01:16:38;53.93;;;41.47;;
68812;SDS011;55808;48.112;11.552;2022-10-19T01:28:23;72.43;;;43.33;;
68812;SDS011;55808;48.112;11.552;2022-10-19T01:34:03;79.87;;;45.73;;
68812;SDS011;55808;48.112;11.552;2022-10-19T01:36:42;42.43;;;39.73;;
68812;SDS011;55808;48.112;11.552;2022-10-19T01:42:55;67.93;;;44.00;;
68812;SDS011;55808;48.112;11.552;2022-10-19T01:47:53;43.63;;;40.50;;
68812;SDS011;55808;48.112;11.552;2022-10-19T01:50:35;53.50;;;41.40;;
68812;SDS011;55808;48.112;11.552;2022-10-19T01:53:06;72.47;;;44.60;;
68812;SDS011;55808;48.112;11.552;2022-10-19T01:55:34;76.27;;;44.43;;
68812;SDS011;55808;48.112;11.552;2022-10-19T01:58:05;69.93;;;43.43;;
68812;SDS011;55808;48.112;11.552;2022-10-19T02:00:34;69.77;;;43.87;;
68812;SDS011;55808;48.112;11.552;2022-10-19T02:03:03;75.40;;;44.47;;
68812;SDS011;55808;48.112;11.552;2022-10-19T02:05:31;80.10;;;46.40;;
68812;SDS011;55808;48.112;11.552;2022-10-19T02:07:59;45.67;;;41.67;;
68812;SDS011;55808;48.112;11.552;2022-10-19T02:10:28;46.50;;;41.90;;
68812;SDS011;55808;48.112;11.552;2022-10-19T02:12:57;52.83;;;43.10;;
68812;SDS011;55808;48.112;11.552;2022-10-19T02:15:26;81.67;;;46.43;;
68812;SDS011;55808;48.112;11.552;2022-10-19T02:17:53;48.10;;;42.33;;
68812;SDS011;55808;48.112;11.552;2022-10-19T02:20:21;41.37;;;38.67;;
68812;SDS011;55808;48.112;11.552;2022-10-19T02:22:47;41.20;;;38.57;;
68812;SDS011;55808;48.112;11.552;2022-10-19T02:25:14;44.80;;;41.00;;
68812;SDS011;55808;48.112;11.552;2022-10-19T02:27:40;55.10;;;44.17;;
68812;SDS011;55808;48.112;11.552;2022-10-19T02:30:07;69.37;;;44.60;;
68812;SDS011;55808;48.112;11.552;2022-10-19T02:32:38;65.87;;;43.40;;
68812;SDS011;55808;48.112;11.552;2022-10-19T02:35:04;66.83;;;43.93;;
68812;SDS011;55808;48.112;11.552;2022-10-19T02:37:30;85.43;;;45.03;;
68812;SDS011;55808;48.112;11.552;2022-10-19T02:39:56;46.63;;;41.83;;
68812;SDS011;55808;48.112;11.552;2022-10-19T02:42:27;43.60;;;40.60;;
68812;SDS011;55808;48.112;11.552;2022-10-19T02:44:59;50.13;;;42.27;;
68812;SDS011;55808;48.112;11.552;2022-10-19T02:47:36;60.10;;;43.67;;
68812;SDS011;55808;48.112;11.552;2022-10-19T02:50:08;74.07;;;44.77;;
68812;SDS011;55808;48.112;11.552;2022-10-19T02:52:38;91.00;;;45.40;;
68812;SDS011;55808;48.112;11.552;2022-10-19T02:55:04;65.00;;;44.63;;
68812;SDS011;55808;48.112;11.552;2022-10-19T02:57:31;71.30;;;44.23;;
68812;SDS011;55808;48.112;11.552;2022-10-19T02:59:57;52.33;;;42.53;;
68812;SDS011;55808;48.112;11.552;2022-10-19T03:02:23;42.23;;;39.80;;
68812;SDS011;55808;48.112;11.552;2022-10-19T03:04:49;42.33;;;39.73;;
68812;SDS011;55808;48.112;11.552;2022-10-19T03:07:16;44.60;;;40.73;;
68812;SDS011;55808;48.112;11.552;2022-10-19T03:09:43;42.23;;;39.70;;
68812;SDS011;55808;48.112;11.552;2022-10-19T03:12:09;56.00;;;43.63;;
68812;SDS011;55808;48.112;11.552;2022-10-19T03:14:35;57.43;;;44.30;;
68812;SDS011;55808;48.112;11.552;2022-10-19T03:17:01;61.80;;;45.07;;
68812;SDS011;55808;48.112;11.552;2022-10-19T03:19:27;60.47;;;45.43;;
68812;SDS011;55808;48.112;11.552;2022-10-19T03:21:53;46.97;;;43.57;;
68812;SDS011;55808;48.112;11.552;2022-10-19T03:24:19;45.83;;;42.33;;
68812;SDS011;55808;48.112;11.552;2022-10-19T03:26:45;45.87;;;42.97;;
68812;SDS011;55808;48.112;11.552;2022-10-19T03:29:10;49.23;;;44.40;;
68812;SDS011;55808;48.112;11.552;2022-10-19T03:31:36;86.50;;;49.27;;
68812;SDS011;55808;48.112;11.552;2022-10-19T03:34:01;67.90;;;48.37;;
68812;SDS011;55808;48.112;11.552;2022-10-19T03:36:28;67.20;;;48.17;;
68812;SDS011;55808;48.112;11.552;2022-10-19T03:39:07;80.60;;;52.33;;
68812;SDS011;55808;48.112;11.552;2022-10-19T03:41:37;70.77;;;48.97;;
68812;SDS011;55808;48.112;11.552;2022-10-19T03:44:04;73.27;;;49.33;;
68812;SDS011;55808;48.112;11.552;2022-10-19T03:46:32;73.50;;;50.43;;
68812;SDS011;55808;48.112;11.552;2022-10-19T03:48:59;56.23;;;50.03;;
68812;SDS011;55808;48.112;11.552;2022-10-19T03:51:26;60.43;;;49.67;;
68812;SDS011;55808;48.112;11.552;2022-10-19T03:53:54;51.67;;;47.47;;
68812;SDS011;55808;48.112;11.552;2022-10-19T03:56:25;50.43;;;46.20;;
68812;SDS011;55808;48.112;11.552;2022-10-19T03:58:53;51.97;;;47.53;;
68812;SDS011;55808;48.112;11.552;2022-10-19T04:01:21;51.80;;;47.33;;
68812;SDS011;55808;48.112;11.552;2022-10-19T04:03:51;50.83;;;46.87;;
68812;SDS011;55808;48.112;11.552;2022-10-19T04:06:18;51.27;;;46.87;;
68812;SDS011;55808;48.112;11.552;2022-10-19T04:08:47;50.40;;;46.03;;
68812;SDS011;55808;48.112;11.552;2022-10-19T04:11:19;50.97;;;46.80;;
68812;SDS011;55808;48.112;11.552;2022-10-19T04:13:47;53.53;;;48.80;;
68812;SDS011;55808;48.112;11.552;2022-10-19T04:16:17;49.17;;;45.40;;
68812;SDS011;55808;48.112;11.552;2022-10-19T04:18:44;49.90;;;45.77;;
68812;SDS011;55808;48.112;11.552;2022-10-19T04:21:29;79.67;;;50.50;;
68812;SDS011;55808;48.112;11.552;2022-10-19T04:23:58;49.63;;;45.53;;
68812;SDS011;55808;48.112;11.552;2022-10-19T04:26:26;53.57;;;47.03;;
68812;SDS011;55808;48.112;11.552;2022-10-19T04:28:56;51.33;;;46.50;;
68812;SDS011;55808;48.112;11.552;2022-10-19T04:31:22;48.00;;;44.60;;
68812;SDS011;55808;48.112;11.552;2022-10-19T04:33:48;48.60;;;44.57;;
68812;SDS011;55808;48.112;11.552;2022-10-19T04:36:13;51.23;;;45.97;;
68812;SDS011;55808;48.112;11.552;2022-10-19T04:38:39;83.57;;;51.23;;
68812;SDS011;55808;48.112;11.552;2022-10-19T04:41:15;79.07;;;49.20;;
68812;SDS011;55808;48.112;11.552;2022-10-19T04:43:42;58.93;;;45.47;;
68812;SDS011;55808;48.112;11.552;2022-10-19T04:46:15;61.17;;;44.73;;
68812;SDS011;55808;48.112;11.552;2022-10-19T04:48:42;64.40;;;45.23;;
68812;SDS011;55808;48.112;11.552;2022-10-19T04:51:08;68.97;;;47.23;;
68812;SDS011;55808;48.112;11.552;2022-10-19T04:53:35;68.00;;;47.60;;
68812;SDS011;55808;48.112;11.552;2022-10-19T04:56:06;77.17;;;45.97;;
68812;SDS011;55808;48.112;11.552;2022-10-19T04:58:34;95.50;;;48.47;;
68812;SDS011;55808;48.112;11.552;2022-10-19T05:01:05;69.23;;;47.63;;
68812;SDS011;55808;48.112;11.552;2022-10-19T05:03:33;65.60;;;47.47;;
68812;SDS011;55808;48.112;11.552;2022-10-19T05:05:58;83.13;;;47.97;;
68812;SDS011;55808;48.112;11.552;2022-10-19T05:08:24;46.00;;;43.07;;
68812;SDS011;55808;48.112;11.552;2022-10-19T05:10:49;47.20;;;43.67;;
68812;SDS011;55808;48.112;11.552;2022-10-19T05:13:15;48.23;;;44.33;;
68812;SDS011;55808;48.112;11.552;2022-10-19T05:15:41;69.73;;;49.10;;
68812;SDS011;55808;48.112;11.552;2022-10-19T05:18:06;69.47;;;48.93;;
68812;SDS011;55808;48.112;11.552;2022-10-19T05:20:32;78.13;;;49.20;;
68812;SDS011;55808;48.112;11.552;2022-10-19T05:22:57;48.93;;;44.13;;
68812;SDS011;55808;48.112;11.552;2022-10-19T05:25:23;49.43;;;45.97;;
68812;SDS011;55808;48.112;11.552;2022-10-19T05:27:49;49.43;;;45.93;;
68812;SDS011;55808;48.112;11.552;2022-10-19T05:30:16;48.77;;;45.00;;
68812;SDS011;55808;48.112;11.552;2022-10-19T05:32:42;64.73;;;48.57;;
68812;SDS011;55808;48.112;11.552;2022-10-19T05:35:08;72.13;;;49.90;;
68812;SDS011;55808;48.112;11.552;2022-10-19T05:37:34;75.80;;;50.40;;
68812;SDS011;55808;48.112;11.552;2022-10-19T05:39:59;68.77;;;48.63;;
68812;SDS011;55808;48.112;11.552;2022-10-19T05:42:25;55.07;;;46.77;;
68812;SDS011;55808;48.112;11.552;2022-10-19T05:44:51;48.80;;;45.40;;
68812;SDS011;55808;48.112;11.552;2022-10-19T05:47:16;48.97;;;45.17;;
68812;SDS011;55808;48.112;11.552;2022-10-19T05:49:42;78.90;;;50.93;;
68812;SDS011;55808;48.112;11.552;2022-10-19T05:52:07;80.23;;;50.60;;
68812;SDS011;55808;48.112;11.552;2022-10-19T05:54:37;80.87;;;50.63;;
68812;SDS011;55808;48.112;11.552;2022-10-19T05:57:02;73.70;;;50.43;;
68812;SDS011;55808;48.112;11.552;2022-10-19T05:59:28;51.37;;;46.80;;
68812;SDS011;55808;48.112;11.552;2022-10-19T06:01:54;55.13;;;47.23;;
68812;SDS011;55808;48.112;11.552;2022-10-19T06:04:19;51.00;;;46.33;;
68812;SDS011;55808;48.112;11.552;2022-10-19T06:06:45;53.23;;;47.63;;
68812;SDS011;55808;48.112;11.552;2022-10-19T06:09:10;94.60;;;53.37;;
68812;SDS011;55808;48.112;11.552;2022-10-19T06:11:37;82.33;;;49.37;;
68812;SDS011;55808;48.112;11.552;2022-10-19T06:14:14;82.33;;;48.97;;
68812;SDS011;55808;48.112;11.552;2022-10-19T06:16:40;90.10;;;50.97;;
68812;SDS011;55808;48.112;11.552;2022-10-19T06:19:05;80.33;;;49.73;;
68812;SDS011;55808;48.112;11.552;2022-10-19T06:21:31;70.83;;;49.33;;
68812;SDS011;55808;48.112;11.552;2022-10-19T06:23:58;59.37;;;48.17;;
68812;SDS011;55808;48.112;11.552;2022-10-19T06:26:26;50.33;;;46.33;;
68812;SDS011;55808;48.112;11.552;2022-10-19T06:28:54;52.90;;;48.10;;
68812;SDS011;55808;48.112;11.552;2022-10-19T06:31:20;52.37;;;47.13;;
68812;SDS011;55808;48.112;11.552;2022-10-19T06:33:46;52.33;;;47.37;;
68812;SDS011;55808;48.112;11.552;2022-10-19T06:38:45;70.13;;;49.93;;
68812;SDS011;55808;48.112;11.552;2022-10-19T06:41:11;81.20;;;53.47;;
68812;SDS011;55808;48.112;11.552;2022-10-19T06:43:37;78.97;;;52.00;;
68812;SDS011;55808;48.112;11.552;2022-10-19T06:46:06;57.97;;;50.13;;
68812;SDS011;55808;48.112;11.552;2022-10-19T06:48:33;66.67;;;51.10;;
68812;SDS011;55808;48.112;11.552;2022-10-19T06:50:59;64.67;;;49.93;;
68812;SDS011;55808;48.112;11.552;2022-10-19T06:53:26;53.67;;;49.10;;
68812;SDS011;55808;48.112;11.552;2022-10-19T06:55:55;49.83;;;45.83;;
68812;SDS011;55808;48.112;11.552;2022-10-19T06:58:23;51.53;;;46.97;;
68812;SDS011;55808;48.112;11.552;2022-10-19T07:00:55;49.67;;;45.47;;
68812;SDS011;55808;48.112;11.552;2022-10-19T07:03:22;52.50;;;48.03;;
68812;SDS011;55808;48.112;11.552;2022-10-19T07:05:53;49.80;;;45.70;;
68812;SDS011;55808;48.112;11.552;2022-10-19T07:08:18;53.27;;;48.30;;
68812;SDS011;55808;48.112;11.552;2022-10-19T07:10:48;76.73;;;49.17;;
68812;SDS011;55808;48.112;11.552;2022-10-19T07:13:16;54.63;;;49.03;;
68812;SDS011;55808;48.112;11.552;2022-10-19T07:15:42;87.07;;;52.30;;
68812;SDS011;55808;48.112;11.552;2022-10-19T07:18:07;78.10;;;54.00;;
68812;SDS011;55808;48.112;11.552;2022-10-19T07:20:33;67.77;;;50.40;;
68812;SDS011;55808;48.112;11.552;2022-10-19T07:22:59;56.67;;;49.60;;
68812;SDS011;55808;48.112;11.552;2022-10-19T07:25:24;51.40;;;46.50;;
68812;SDS011;55808;48.112;11.552;2022-10-19T07:27:50;51.50;;;47.30;;
68812;SDS011;55808;48.112;11.552;2022-10-19T07:30:16;53.53;;;48.23;;
68812;SDS011;55808;48.112;11.552;2022-10-19T07:32:42;86.30;;;52.80;;
68812;SDS011;55808;48.112;11.552;2022-10-19T07:35:07;94.23;;;55.23;;
68812;SDS011;55808;48.112;11.552;2022-10-19T07:37:33;67.53;;;49.10;;
68812;SDS011;55808;48.112;11.552;2022-10-19T07:39:58;62.73;;;48.23;;
68812;SDS011;55808;48.112;11.552;2022-10-19T07:42:24;56.73;;;51.33;;
68812;SDS011;55808;48.112;11.552;2022-10-19T07:44:50;52.60;;;48.30;;
68812;SDS011;55808;48.112;11.552;2022-10-19T07:47:15;57.20;;;51.33;;
68812;SDS011;55808;48.112;11.552;2022-10-19T07:49:41;88.43;;;54.53;;
68812;SDS011;55808;48.112;11.552;2022-10-19T07:52:06;84.10;;;55.63;;
68812;SDS011;55808;48.112;11.552;2022-10-19T07:54:32;70.83;;;53.23;;
68812;SDS011;55808;48.112;11.552;2022-10-19T07:56:58;55.20;;;49.00;;
68812;SDS011;55808;48.112;11.552;2022-10-19T07:59:23;51.50;;;47.50;;
68812;SDS011;55808;48.112;11.552;2022-10-19T08:01:49;54.00;;;49.30;;
68812;SDS011;55808;48.112;11.552;2022-10-19T08:04:15;91.13;;;52.87;;
68812;SDS011;55808;48.112;11.552;2022-10-19T08:06:41;105.67;;;54.43;;
68812;SDS011;55808;48.112;11.552;2022-10-19T08:09:06;95.30;;;54.97;;
68812;SDS011;55808;48.112;11.552;2022-10-19T08:11:32;88.30;;;53.63;;
68812;SDS011;55808;48.112;11.552;2022-10-19T08:13:59;53.80;;;47.53;;
68812;SDS011;55808;48.112;11.552;2022-10-19T08:16:34;52.47;;;47.97;;
68812;SDS011;55808;48.112;11.552;2022-10-19T08:19:03;76.37;;;51.70;;
68812;SDS011;55808;48.112;11.552;2022-10-19T08:21:37;93.70;;;55.70;;
68812;SDS011;55808;48.112;11.552;2022-10-19T08:24:04;63.87;;;51.60;;
68812;SDS011;55808;48.112;11.552;2022-10-19T08:26:32;64.20;;;52.27;;
68812;SDS011;55808;48.112;11.552;2022-10-19T08:29:06;54.90;;;49.20;;
68812;SDS011;55808;48.112;11.552;2022-10-19T08:31:34;75.83;;;52.90;;
68812;SDS011;55808;48.112;11.552;2022-10-19T08:34:00;70.83;;;52.90;;
68812;SDS011;55808;48.112;11.552;2022-10-19T08:36:25;56.43;;;50.40;;
68812;SDS011;55808;48.112;11.552;2022-10-19T08:38:55;60.17;;;52.33;;
68812;SDS011;55808;48.112;11.552;2022-10-19T08:47:10;54.23;;;49.20;;
68812;SDS011;55808;48.112;11.552;2022-10-19T08:49:55;55.00;;;50.43;;
68812;SDS011;55808;48.112;11.552;2022-10-19T08:54:57;56.10;;;51.03;;
68812;SDS011;55808;48.112;11.552;2022-10-19T08:57:49;53.43;;;49.20;;
68812;SDS011;55808;48.112;11.552;2022-10-19T09:00:42;58.37;;;53.27;;
68812;SDS011;55808;48.112;11.552;2022-10-19T09:08:30;58.07;;;52.27;;
68812;SDS011;55808;48.112;11.552;2022-10-19T09:10:57;55.03;;;50.57;;
68812;SDS011;55808;48.112;11.552;2022-10-19T09:16:13;80.10;;;55.57;;
68812;SDS011;55808;48.112;11.552;2022-10-19T09:18:41;80.73;;;54.83;;
68812;SDS011;55808;48.112;11.552;2022-10-19T09:26:27;59.23;;;52.67;;
68812;SDS011;55808;48.112;11.552;2022-10-19T09:28:58;58.03;;;52.10;;
68812;SDS011;55808;48.112;11.552;2022-10-19T09:31:30;57.80;;;52.30;;
68812;SDS011;55808;48.112;11.552;2022-10-19T09:34:02;58.37;;;52.43;;
68812;SDS011;55808;48.112;11.552;2022-10-19T09:36:39;67.77;;;51.70;;
68812;SDS011;55808;48.112;11.552;2022-10-19T09:39:11;122.50;;;59.83;;
68812;SDS011;55808;48.112;11.552;2022-10-19T09:41:43;87.50;;;56.20;;
68812;SDS011;55808;48.112;11.552;2022-10-19T09:44:17;64.53;;;52.93;;
68812;SDS011;55808;48.112;11.552;2022-10-19T09:49:47;77.30;;;53.63;;
68812;SDS011;55808;48.112;11.552;2022-10-19T09:57:48;82.27;;;55.73;;
68812;SDS011;55808;48.112;11.552;2022-10-19T10:00:24;80.60;;;54.03;;
68812;SDS011;55808;48.112;11.552;2022-10-19T10:02:56;53.93;;;49.60;;
68812;SDS011;55808;48.112;11.552;2022-10-19T10:05:28;56.00;;;50.70;;
68812;SDS011;55808;48.112;11.552;2022-10-19T10:08:03;67.43;;;51.57;;
68812;SDS011;55808;48.112;11.552;2022-10-19T10:10:38;55.83;;;50.30;;
68812;SDS011;55808;48.112;11.552;2022-10-19T10:13:18;88.27;;;54.87;;
68812;SDS011;55808;48.112;11.552;2022-10-19T10:15:46;77.93;;;53.30;;
68812;SDS011;55808;48.112;11.552;2022-10-19T10:18:20;55.37;;;50.37;;
68812;SDS011;55808;48.112;11.552;2022-10-19T10:20:59;55.37;;;49.40;;
68812;SDS011;55808;48.112;11.552;2022-10-19T10:23:29;54.73;;;49.07;;
68812;SDS011;55808;48.112;11.552;2022-10-19T10:26:00;52.60;;;47.43;;
68812;SDS011;55808;48.112;11.552;2022-10-19T10:28:27;53.40;;;48.43;;
68812;SDS011;55808;48.112;11.552;2022-10-19T10:31:14;54.93;;;49.47;;
68812;SDS011;55808;48.112;11.552;2022-10-19T10:33:42;86.60;;;53.10;;
68812;SDS011;55808;48.112;11.552;2022-10-19T10:36:15;71.67;;;54.03;;
68812;SDS011;55808;48.112;11.552;2022-10-19T10:38:46;81.30;;;52.80;;
68812;SDS011;55808;48.112;11.552;2022-10-19T10:41:17;71.97;;;52.07;;
68812;SDS011;55808;48.112;11.552;2022-10-19T10:43:51;76.70;;;52.20;;
68812;SDS011;55808;48.112;11.552;2022-10-19T10:46:26;51.03;;;46.37;;
68812;SDS011;55808;48.112;11.552;2022-10-19T10:48:57;67.97;;;50.90;;
68812;SDS011;55808;48.112;11.552;2022-10-19T10:54:10;59.33;;;49.50;;
68812;SDS011;55808;48.112;11.552;2022-10-19T11:03:19;51.40;;;46.80;;
68812;SDS011;55808;48.112;11.552;2022-10-19T11:05:26;50.20;;;46.17;;
68812;SDS011;55808;48.112;11.552;2022-10-19T11:10:46;50.93;;;46.43;;
68812;SDS011;55808;48.112;11.552;2022-10-19T11:13:19;50.13;;;46.40;;
68812;SDS011;55808;48.112;11.552;2022-10-19T11:18:40;52.20;;;47.57;;
68812;SDS011;55808;48.112;11.552;2022-10-19T11:21:27;48.37;;;45.07;;
68812;SDS011;55808;48.112;11.552;2022-10-19T11:32:31;49.73;;;45.80;;
68812;SDS011;55808;48.112;11.552;2022-10-19T11:41:33;50.53;;;46.23;;
68812;SDS011;55808;48.112;11.552;2022-10-19T11:44:18;49.83;;;46.03;;
68812;SDS011;55808;48.112;11.552;2022-10-19T11:52:45;50.40;;;46.80;;
68812;SDS011;55808;48.112;11.552;2022-10-19T12:06:45;47.30;;;44.27;;
68812;SDS011;55808;48.112;11.552;2022-10-19T12:09:26;50.53;;;46.83;;
68812;SDS011;55808;48.112;11.552;2022-10-19T12:14:39;50.67;;;46.53;;
68812;SDS011;55808;48.112;11.552;2022-10-19T12:17:08;50.67;;;46.20;;
68812;SDS011;55808;48.112;11.552;2022-10-19T12:19:41;47.30;;;44.33;;
68812;SDS011;55808;48.112;11.552;2022-10-19T12:22:20;47.90;;;45.23;;
68812;SDS011;55808;48.112;11.552;2022-10-19T12:24:49;50.87;;;46.80;;
68812;SDS011;55808;48.112;11.552;2022-10-19T12:27:20;50.10;;;46.97;;
68812;SDS011;55808;48.112;11.552;2022-10-19T12:29:53;48.57;;;45.30;;
68812;SDS011;55808;48.112;11.552;2022-10-19T12:32:22;51.93;;;47.20;;
68812;SDS011;55808;48.112;11.552;2022-10-19T12:38:15;48.97;;;45.43;;
68812;SDS011;55808;48.112;11.552;2022-10-19T12:40:43;49.27;;;46.57;;
68812;SDS011;55808;48.112;11.552;2022-10-19T12:43:12;49.50;;;45.80;;
68812;SDS011;55808;48.112;11.552;2022-10-19T12:46:10;47.60;;;44.57;;
68812;SDS011;55808;48.112;11.552;2022-10-19T12:48:44;47.83;;;44.77;;
68812;SDS011;55808;48.112;11.552;2022-10-19T12:51:13;48.00;;;45.00;;
68812;SDS011;55808;48.112;11.552;2022-10-19T12:53:44;47.50;;;44.53;;
68812;SDS011;55808;48.112;11.552;2022-10-19T12:58:58;48.70;;;45.50;;
68812;SDS011;55808;48.112;11.552;2022-10-19T13:04:07;48.00;;;45.20;;
68812;SDS011;55808;48.112;11.552;2022-10-19T13:06:45;47.27;;;44.40;;
68812;SDS011;55808;48.112;11.552;2022-10-19T13:09:25;50.17;;;46.27;;
68812;SDS011;55808;48.112;11.552;2022-10-19T13:14:48;49.47;;;46.00;;
68812;SDS011;55808;48.112;11.552;2022-10-19T13:35:48;53.23;;;50.13;;
68812;SDS011;55808;48.112;11.552;2022-10-19T13:41:17;55.47;;;51.43;;
68812;SDS011;55808;48.112;11.552;2022-10-19T13:44:32;55.60;;;51.63;;
68812;SDS011;55808;48.112;11.552;2022-10-19T14:02:54;54.70;;;50.77;;
68812;SDS011;55808;48.112;11.552;2022-10-19T14:19:31;56.07;;;51.30;;
68812;SDS011;55808;48.112;11.552;2022-10-19T14:24:44;55.23;;;51.27;;
68812;SDS011;55808;48.112;11.552;2022-10-19T14:27:10;53.37;;;50.23;;
68812;SDS011;55808;48.112;11.552;2022-10-19T14:29:48;53.50;;;50.27;;
68812;SDS011;55808;48.112;11.552;2022-10-19T14:32:16;54.30;;;50.33;;
68812;SDS011;55808;48.112;11.552;2022-10-19T14:34:46;52.70;;;49.77;;
68812;SDS011;55808;48.112;11.552;2022-10-19T14:37:17;52.83;;;49.60;;
68812;SDS011;55808;48.112;11.552;2022-10-19T14:39:59;52.17;;;49.17;;
68812;SDS011;55808;48.112;11.552;2022-10-19T14:42:34;51.30;;;49.00;;
68812;SDS011;55808;48.112;11.552;2022-10-19T14:45:08;50.43;;;47.70;;
68812;SDS011;55808;48.112;11.552;2022-10-19T14:50:17;48.53;;;46.63;;
68812;SDS011;55808;48.112;11.552;2022-10-19T14:52:45;50.90;;;48.40;;
68812;SDS011;55808;48.112;11.552;2022-10-19T14:55:14;50.37;;;48.00;;
68812;SDS011;55808;48.112;11.552;2022-10-19T14:57:42;48.90;;;46.33;;
68812;SDS011;55808;48.112;11.552;2022-10-19T15:00:16;49.80;;;47.50;;
68812;SDS011;55808;48.112;11.552;2022-10-19T15:05:24;51.17;;;48.17;;
68812;SDS011;55808;48.112;11.552;2022-10-19T15:07:53;49.97;;;47.20;;
68812;SDS011;55808;48.112;11.552;2022-10-19T15:10:20;52.03;;;48.70;;
68812;SDS011;55808;48.112;11.552;2022-10-19T15:12:59;49.60;;;46.40;;
68812;SDS011;55808;48.112;11.552;2022-10-19T15:15:28;49.70;;;46.47;;
68812;SDS011;55808;48.112;11.552;2022-10-19T15:22:58;51.80;;;47.60;;
68812;SDS011;55808;48.112;11.552;2022-10-19T15:25:35;50.07;;;46.37;;
68812;SDS011;55808;48.112;11.552;2022-10-19T15:28:20;46.93;;;44.40;;
68812;SDS011;55808;48.112;11.552;2022-10-19T15:31:00;48.20;;;45.20;;
68812;SDS011;55808;48.112;11.552;2022-10-19T15:33:36;47.80;;;44.87;;
68812;SDS011;55808;48.112;11.552;2022-10-19T15:36:07;49.23;;;45.80;;
68812;SDS011;55808;48.112;11.552;2022-10-19T15:38:41;48.87;;;45.40;;
68812;SDS011;55808;48.112;11.552;2022-10-19T15:41:14;50.77;;;46.37;;
68812;SDS011;55808;48.112;11.552;2022-10-19T15:43:52;48.37;;;44.77;;
68812;SDS011;55808;48.112;11.552;2022-10-19T15:46:22;45.03;;;42.13;;
68812;SDS011;55808;48.112;11.552;2022-10-19T15:48:48;49.10;;;45.33;;
68812;SDS011;55808;48.112;11.552;2022-10-19T15:51:39;47.07;;;44.20;;
68812;SDS011;55808;48.112;11.552;2022-10-19T15:54:06;49.60;;;45.50;;
68812;SDS011;55808;48.112;11.552;2022-10-19T15:56:34;46.63;;;43.90;;
68812;SDS011;55808;48.112;11.552;2022-10-19T15:59:02;46.67;;;43.80;;
68812;SDS011;55808;48.112;11.552;2022-10-19T16:01:31;50.70;;;45.83;;
68812;SDS011;55808;48.112;11.552;2022-10-19T16:03:58;47.77;;;43.67;;
68812;SDS011;55808;48.112;11.552;2022-10-19T16:06:25;45.13;;;42.57;;
68812;SDS011;55808;48.112;11.552;2022-10-19T16:08:52;46.27;;;43.20;;
68812;SDS011;55808;48.112;11.552;2022-10-19T16:11:19;49.43;;;44.73;;
68812;SDS011;55808;48.112;11.552;2022-10-19T16:13:47;46.17;;;43.27;;
68812;SDS011;55808;48.112;11.552;2022-10-19T16:16:16;47.30;;;43.50;;
68812;SDS011;55808;48.112;11.552;2022-10-19T16:18:46;44.67;;;41.17;;
68812;SDS011;55808;48.112;11.552;2022-10-19T16:21:11;47.63;;;43.60;;
68812;SDS011;55808;48.112;11.552;2022-10-19T16:23:38;46.37;;;42.03;;
68812;SDS011;55808;48.112;11.552;2022-10-19T16:26:04;42.80;;;40.03;;
68812;SDS011;55808;48.112;11.552;2022-10-19T16:28:30;45.20;;;41.90;;
68812;SDS011;55808;48.112;11.552;2022-10-19T16:30:56;43.50;;;41.00;;
68812;SDS011;55808;48.112;11.552;2022-10-19T16:33:22;44.93;;;41.43;;
68812;SDS011;55808;48.112;11.552;2022-10-19T16:35:47;43.30;;;40.77;;
68812;SDS011;55808;48.112;11.552;2022-10-19T16:38:13;42.87;;;40.20;;
68812;SDS011;55808;48.112;11.552;2022-10-19T16:40:39;43.77;;;40.90;;
68812;SDS011;55808;48.112;11.552;2022-10-19T16:43:04;43.87;;;41.07;;
68812;SDS011;55808;48.112;11.552;2022-10-19T16:45:30;42.13;;;39.67;;
68812;SDS011;55808;48.112;11.552;2022-10-19T16:47:56;46.47;;;41.53;;
68812;SDS011;55808;48.112;11.552;2022-10-19T16:50:22;43.13;;;40.60;;
68812;SDS011;55808;48.112;11.552;2022-10-19T16:52:53;43.63;;;40.73;;
68812;SDS011;55808;48.112;11.552;2022-10-19T16:55:28;45.00;;;41.57;;
68812;SDS011;55808;48.112;11.552;2022-10-19T16:57:55;43.63;;;40.73;;
68812;SDS011;55808;48.112;11.552;2022-10-19T17:00:20;42.53;;;39.73;;
68812;SDS011;55808;48.112;11.552;2022-10-19T17:02:46;44.43;;;40.57;;
68812;SDS011;55808;48.112;11.552;2022-10-19T17:05:12;44.70;;;41.63;;
68812;SDS011;55808;48.112;11.552;2022-10-19T17:07:38;45.37;;;41.73;;
68812;SDS011;55808;48.112;11.552;2022-10-19T17:10:03;47.60;;;43.10;;
68812;SDS011;55808;48.112;11.552;2022-10-19T17:12:29;43.47;;;40.40;;
68812;SDS011;55808;48.112;11.552;2022-10-19T17:14:55;46.47;;;42.53;;
68812;SDS011;55808;48.112;11.552;2022-10-19T17:17:20;46.50;;;42.07;;
68812;SDS011;55808;48.112;11.552;2022-10-19T17:19:46;44.77;;;41.07;;
68812;SDS011;55808;48.112;11.552;2022-10-19T17:22:12;44.33;;;40.73;;